createdAt,value
2022-12-25T00:00:20.197Z,2.32
2022-12-25T00:00:53.445Z,2.29
2022-12-25T00:01:27.393Z,2.29
2022-12-25T00:01:40.274Z,2.27
2022-12-25T00:01:52.921Z,2.27
2022-12-25T00:02:05.611Z,2.27
2022-12-25T00:02:18.291Z,2.26
2022-12-25T00:02:31.066Z,2.27
2022-12-25T00:02:43.939Z,2.26
2022-12-25T00:02:56.781Z,2.26
2022-12-25T00:03:10.755Z,2.27
2022-12-25T00:03:23.582Z,2.27
2022-12-25T00:03:36.656Z,2.26
2022-12-25T00:03:49.505Z,2.26
2022-12-25T00:04:02.309Z,2.28
2022-12-25T00:04:15.050Z,2.28
2022-12-25T00:04:27.899Z,2.26
2022-12-25T00:04:40.598Z,2.29
2022-12-25T00:04:54.211Z,2.28
2022-12-25T00:05:07.272Z,2.29
2022-12-25T00:05:19.976Z,2.29
2022-12-25T00:05:32.592Z,2.30
2022-12-25T00:05:45.318Z,2.30
2022-12-25T00:05:58.619Z,2.31
2022-12-25T00:06:11.645Z,2.32
2022-12-25T00:06:24.681Z,2.30
2022-12-25T00:06:38.380Z,2.32
2022-12-25T00:06:51.003Z,2.32
2022-12-25T00:07:03.779Z,2.33
2022-12-25T00:07:16.387Z,2.33
2022-12-25T00:07:28.995Z,2.33
2022-12-25T00:07:41.611Z,2.34
2022-12-25T00:07:54.265Z,2.34
2022-12-25T00:08:07.902Z,2.34
2022-12-25T00:08:20.535Z,2.36
2022-12-25T00:08:33.829Z,2.35
2022-12-25T00:08:46.651Z,2.36
2022-12-25T00:08:59.235Z,2.36
2022-12-25T00:09:11.865Z,2.36
2022-12-25T00:09:25.496Z,2.37
2022-12-25T00:09:38.092Z,2.37
2022-12-25T00:09:50.695Z,2.37
2022-12-25T00:10:04.577Z,2.38
2022-12-25T00:10:17.308Z,2.38
2022-12-25T00:10:29.899Z,2.38
2022-12-25T00:10:45.482Z,2.38
2022-12-25T00:10:59.487Z,2.38
2022-12-25T00:11:14.171Z,2.38
2022-12-25T00:11:26.798Z,2.39
2022-12-25T00:11:40.872Z,2.39
2022-12-25T00:11:54.472Z,2.39
2022-12-25T00:12:07.190Z,2.40
2022-12-25T00:12:21.005Z,2.40
2022-12-25T00:12:33.754Z,2.40
2022-12-25T00:12:46.379Z,2.39
2022-12-25T00:12:59.050Z,2.40
2022-12-25T00:13:11.658Z,2.39
2022-12-25T00:13:24.270Z,2.39
2022-12-25T00:13:38.161Z,2.40
2022-12-25T00:13:51.743Z,2.39
2022-12-25T00:14:04.455Z,2.40
2022-12-25T00:14:17.302Z,2.39
2022-12-25T00:14:29.896Z,2.39
2022-12-25T00:14:42.499Z,2.39
2022-12-25T00:14:55.452Z,2.38
2022-12-25T00:15:09.568Z,2.40
2022-12-25T00:15:22.230Z,2.39
2022-12-25T00:15:34.825Z,2.39
2022-12-25T00:15:47.667Z,2.40
2022-12-25T00:16:00.479Z,2.39
2022-12-25T00:16:16.280Z,2.39
2022-12-25T00:16:28.965Z,2.40
2022-12-25T00:16:41.649Z,2.39
2022-12-25T00:16:55.249Z,2.40
2022-12-25T00:17:07.841Z,2.39
2022-12-25T00:17:20.437Z,2.41
2022-12-25T00:17:33.232Z,2.40
2022-12-25T00:17:45.829Z,2.41
2022-12-25T00:17:58.411Z,2.41
2022-12-25T00:18:11.171Z,2.42
2022-12-25T00:18:25.689Z,2.42
2022-12-25T00:18:38.378Z,2.42
2022-12-25T00:18:51.484Z,2.41
2022-12-25T00:19:04.405Z,2.42
2022-12-25T00:19:17.275Z,2.41
2022-12-25T00:19:29.879Z,2.40
2022-12-25T00:19:42.496Z,2.38
2022-12-25T00:19:56.092Z,2.38
2022-12-25T00:20:10.156Z,2.39
2022-12-25T00:20:22.782Z,2.38
2022-12-25T00:20:35.414Z,2.38
2022-12-25T00:20:56.685Z,2.39
2022-12-25T00:21:10.675Z,2.38
2022-12-25T00:21:24.323Z,2.38
2022-12-25T00:21:36.895Z,2.38
2022-12-25T00:21:49.520Z,2.37
2022-12-25T00:22:02.159Z,2.36
2022-12-25T00:22:14.849Z,2.37
2022-12-25T00:22:27.478Z,2.36
2022-12-25T00:22:40.118Z,2.35
2022-12-25T00:22:52.703Z,2.37
2022-12-25T00:23:05.298Z,2.37
2022-12-25T00:23:18.907Z,2.36
2022-12-25T00:23:32.188Z,2.35
2022-12-25T00:23:45.209Z,2.36
2022-12-25T00:23:58.897Z,2.35
2022-12-25T00:24:11.571Z,2.35
2022-12-25T00:24:24.178Z,2.35
2022-12-25T00:24:37.900Z,2.34
2022-12-25T00:24:50.728Z,2.33
2022-12-25T00:25:03.616Z,2.34
2022-12-25T00:25:16.409Z,2.33
2022-12-25T00:25:29.047Z,2.34
2022-12-25T00:25:42.125Z,2.34
2022-12-25T00:25:55.144Z,2.33
2022-12-25T00:26:09.917Z,2.31
2022-12-25T00:26:24.367Z,2.33
2022-12-25T00:26:36.964Z,2.32
2022-12-25T00:26:50.963Z,2.32
2022-12-25T00:27:03.666Z,2.33
2022-12-25T00:27:16.779Z,2.33
2022-12-25T00:27:31.847Z,2.34
2022-12-25T00:27:44.449Z,2.34
2022-12-25T00:27:58.049Z,2.34
2022-12-25T00:28:10.618Z,2.34
2022-12-25T00:28:24.252Z,2.32
2022-12-25T00:28:37.367Z,2.35
2022-12-25T00:28:53.307Z,2.33
2022-12-25T00:29:05.891Z,2.33
2022-12-25T00:29:19.517Z,2.35
2022-12-25T00:29:32.128Z,2.35
2022-12-25T00:29:44.763Z,2.33
2022-12-25T00:29:57.359Z,2.36
2022-12-25T00:30:10.830Z,2.36
2022-12-25T00:30:23.430Z,2.36
2022-12-25T00:30:40.959Z,2.36
2022-12-25T00:30:54.567Z,2.35
2022-12-25T00:31:10.048Z,2.33
2022-12-25T00:31:23.348Z,2.33
2022-12-25T00:31:36.114Z,2.35
2022-12-25T00:31:49.006Z,2.34
2022-12-25T00:32:01.697Z,2.35
2022-12-25T00:32:14.392Z,2.34
2022-12-25T00:32:28.048Z,2.33
2022-12-25T00:32:42.154Z,2.34
2022-12-25T00:32:55.107Z,2.33
2022-12-25T00:33:07.726Z,2.34
2022-12-25T00:33:20.422Z,2.32
2022-12-25T00:33:35.355Z,2.33
2022-12-25T00:33:50.403Z,2.32
2022-12-25T00:34:03.995Z,2.31
2022-12-25T00:34:16.627Z,2.31
2022-12-25T00:34:29.197Z,2.31
2022-12-25T00:34:41.805Z,2.31
2022-12-25T00:34:54.492Z,2.31
2022-12-25T00:35:07.612Z,2.31
2022-12-25T00:35:20.276Z,2.31
2022-12-25T00:35:32.939Z,2.30
2022-12-25T00:35:46.542Z,2.27
2022-12-25T00:35:59.706Z,2.29
2022-12-25T00:36:13.940Z,2.30
2022-12-25T00:36:26.561Z,2.30
2022-12-25T00:36:41.977Z,2.29
2022-12-25T00:36:54.956Z,2.30
2022-12-25T00:37:07.592Z,2.29
2022-12-25T00:37:21.513Z,2.30
2022-12-25T00:37:34.115Z,2.29
2022-12-25T00:37:46.688Z,2.29
2022-12-25T00:37:59.295Z,2.30
2022-12-25T00:38:12.086Z,2.31
2022-12-25T00:38:24.763Z,2.29
2022-12-25T00:38:39.254Z,2.30
2022-12-25T00:38:51.949Z,2.31
2022-12-25T00:39:07.055Z,2.32
2022-12-25T00:39:19.807Z,2.31
2022-12-25T00:39:32.478Z,2.31
2022-12-25T00:39:45.067Z,2.31
2022-12-25T00:39:57.669Z,2.31
2022-12-25T00:40:10.964Z,2.31
2022-12-25T00:40:23.612Z,2.32
2022-12-25T00:40:44.184Z,2.32
2022-12-25T00:40:56.877Z,2.30
2022-12-25T00:41:11.231Z,2.31
2022-12-25T00:41:39.053Z,2.32
2022-12-25T00:42:11.707Z,2.33
2022-12-25T00:42:26.991Z,2.32
2022-12-25T00:42:39.616Z,2.31
2022-12-25T00:42:52.222Z,2.31
2022-12-25T00:43:05.802Z,2.32
2022-12-25T00:43:18.429Z,2.31
2022-12-25T00:43:31.015Z,2.32
2022-12-25T00:43:44.221Z,2.32
2022-12-25T00:43:56.805Z,2.32
2022-12-25T00:44:12.496Z,2.31
2022-12-25T00:44:25.135Z,2.32
2022-12-25T00:44:37.725Z,2.32
2022-12-25T00:44:51.909Z,2.32
2022-12-25T00:45:05.936Z,2.33
2022-12-25T00:45:18.556Z,2.33
2022-12-25T00:45:31.216Z,2.33
2022-12-25T00:45:44.069Z,2.33
2022-12-25T00:45:58.774Z,2.34
2022-12-25T00:46:13.133Z,2.35
2022-12-25T00:46:26.934Z,2.34
2022-12-25T00:46:40.322Z,2.34
2022-12-25T00:46:53.280Z,2.35
2022-12-25T00:47:06.030Z,2.36
2022-12-25T00:47:18.775Z,2.35
2022-12-25T00:47:31.659Z,2.35
2022-12-25T00:47:45.399Z,2.35
2022-12-25T00:47:58.129Z,2.35
2022-12-25T00:48:10.689Z,2.36
2022-12-25T00:48:23.542Z,2.36
2022-12-25T00:48:36.654Z,2.35
2022-12-25T00:48:49.300Z,2.35
2022-12-25T00:49:02.132Z,2.34
2022-12-25T00:49:14.750Z,2.35
2022-12-25T00:49:28.437Z,2.35
2022-12-25T00:49:41.237Z,2.36
2022-12-25T00:49:53.838Z,2.36
2022-12-25T00:50:08.514Z,2.36
2022-12-25T00:50:21.157Z,2.35
2022-12-25T00:50:33.798Z,2.33
2022-12-25T00:50:46.748Z,2.32
2022-12-25T00:51:04.192Z,2.34
2022-12-25T00:51:17.051Z,2.33
2022-12-25T00:51:29.696Z,2.33
2022-12-25T00:51:42.366Z,2.32
2022-12-25T00:51:55.028Z,2.32
2022-12-25T00:52:07.859Z,2.32
2022-12-25T00:52:21.464Z,2.32
2022-12-25T00:52:34.157Z,2.32
2022-12-25T00:52:46.760Z,2.32
2022-12-25T00:52:59.361Z,2.31
2022-12-25T00:53:11.993Z,2.31
2022-12-25T00:53:25.719Z,2.30
2022-12-25T00:53:38.332Z,2.28
2022-12-25T00:53:50.938Z,2.30
2022-12-25T00:54:03.736Z,2.30
2022-12-25T00:54:17.350Z,2.29
2022-12-25T00:54:29.943Z,2.30
2022-12-25T00:54:42.550Z,2.30
2022-12-25T00:54:55.309Z,2.30
2022-12-25T00:55:08.378Z,2.29
2022-12-25T00:55:21.068Z,2.26
2022-12-25T00:55:34.615Z,2.29
2022-12-25T00:55:51.359Z,2.28
2022-12-25T00:56:06.663Z,2.29
2022-12-25T00:56:19.235Z,2.30
2022-12-25T00:56:31.838Z,2.28
2022-12-25T00:56:44.861Z,2.29
2022-12-25T00:56:59.812Z,2.29
2022-12-25T00:57:12.465Z,2.29
2022-12-25T00:57:25.128Z,2.26
2022-12-25T00:57:37.722Z,2.28
2022-12-25T00:57:50.311Z,2.28
2022-12-25T00:58:02.917Z,2.27
2022-12-25T00:58:15.560Z,2.27
2022-12-25T00:58:32.323Z,2.26
2022-12-25T00:58:45.007Z,2.25
2022-12-25T00:58:57.610Z,2.25
2022-12-25T00:59:10.623Z,2.23
2022-12-25T00:59:23.243Z,2.26
2022-12-25T00:59:36.001Z,2.25
2022-12-25T00:59:48.586Z,2.26
2022-12-25T01:00:01.209Z,2.26
2022-12-25T01:00:16.491Z,2.25
2022-12-25T01:00:29.059Z,2.25
2022-12-25T01:00:41.674Z,2.25
2022-12-25T01:00:54.544Z,2.24
2022-12-25T01:01:10.846Z,2.24
2022-12-25T01:01:23.765Z,2.22
2022-12-25T01:01:36.521Z,2.25
2022-12-25T01:01:50.359Z,2.23
2022-12-25T01:02:18.105Z,2.23
2022-12-25T01:02:30.969Z,2.24
2022-12-25T01:02:43.790Z,2.24
2022-12-25T01:02:56.709Z,2.23
2022-12-25T01:03:09.501Z,2.22
2022-12-25T01:03:23.688Z,2.23
2022-12-25T01:03:36.525Z,2.23
2022-12-25T01:03:49.150Z,2.23
2022-12-25T01:04:01.728Z,2.22
2022-12-25T01:04:14.436Z,2.22
2022-12-25T01:04:27.032Z,2.21
2022-12-25T01:04:39.650Z,2.21
2022-12-25T01:04:54.820Z,2.22
2022-12-25T01:05:08.721Z,2.22
2022-12-25T01:05:21.344Z,2.22
2022-12-25T01:05:33.941Z,2.22
2022-12-25T01:05:55.864Z,2.22
2022-12-25T01:06:10.969Z,2.23
2022-12-25T01:06:23.769Z,2.23
2022-12-25T01:06:37.369Z,2.22
2022-12-25T01:06:49.990Z,2.21
2022-12-25T01:07:02.562Z,2.21
2022-12-25T01:07:17.016Z,2.18
2022-12-25T01:07:29.697Z,2.20
2022-12-25T01:07:42.365Z,2.20
2022-12-25T01:07:54.923Z,2.20
2022-12-25T01:08:07.710Z,2.17
2022-12-25T01:08:21.315Z,2.21
2022-12-25T01:08:36.693Z,2.18
2022-12-25T01:09:04.183Z,2.22
2022-12-25T01:09:34.945Z,2.22
2022-12-25T01:10:07.086Z,2.22
2022-12-25T01:10:22.358Z,2.23
2022-12-25T01:10:34.986Z,2.21
2022-12-25T01:10:54.174Z,2.20
2022-12-25T01:11:09.022Z,2.22
2022-12-25T01:11:21.632Z,2.23
2022-12-25T01:11:34.276Z,2.23
2022-12-25T01:11:46.885Z,2.21
2022-12-25T01:12:00.850Z,2.26
2022-12-25T01:12:13.465Z,2.25
2022-12-25T01:12:27.068Z,2.25
2022-12-25T01:12:41.838Z,2.25
2022-12-25T01:12:54.431Z,2.23
2022-12-25T01:13:08.191Z,2.25
2022-12-25T01:13:21.058Z,2.25
2022-12-25T01:13:35.174Z,2.25
2022-12-25T01:13:47.784Z,2.25
2022-12-25T01:14:01.520Z,2.23
2022-12-25T01:14:15.131Z,2.25
2022-12-25T01:14:27.764Z,2.25
2022-12-25T01:14:40.367Z,2.25
2022-12-25T01:14:53.003Z,2.25
2022-12-25T01:15:07.224Z,2.24
2022-12-25T01:15:20.226Z,2.23
2022-12-25T01:15:33.827Z,2.25
2022-12-25T01:15:46.424Z,2.25
2022-12-25T01:15:59.078Z,2.25
2022-12-25T01:16:11.995Z,2.25
2022-12-25T01:16:24.805Z,2.27
2022-12-25T01:16:38.051Z,2.25
2022-12-25T01:16:50.773Z,2.25
2022-12-25T01:17:03.346Z,2.26
2022-12-25T01:17:16.941Z,2.25
2022-12-25T01:17:29.524Z,2.23
2022-12-25T01:17:43.064Z,2.26
2022-12-25T01:17:55.664Z,2.25
2022-12-25T01:18:09.811Z,2.26
2022-12-25T01:18:25.507Z,2.28
2022-12-25T01:18:39.969Z,2.26
2022-12-25T01:18:52.682Z,2.25
2022-12-25T01:19:05.390Z,2.27
2022-12-25T01:19:18.044Z,2.27
2022-12-25T01:19:30.652Z,2.26
2022-12-25T01:19:43.267Z,2.27
2022-12-25T01:19:55.914Z,2.27
2022-12-25T01:20:09.716Z,2.25
2022-12-25T01:20:23.358Z,2.23
2022-12-25T01:20:35.923Z,2.24
2022-12-25T01:20:49.005Z,2.23
2022-12-25T01:21:06.421Z,2.23
2022-12-25T01:21:21.232Z,2.21
2022-12-25T01:21:34.163Z,2.23
2022-12-25T01:21:46.793Z,2.23
2022-12-25T01:22:00.358Z,2.23
2022-12-25T01:22:12.956Z,2.22
2022-12-25T01:22:25.659Z,2.23
2022-12-25T01:22:38.270Z,2.21
2022-12-25T01:22:50.846Z,2.21
2022-12-25T01:23:03.731Z,2.20
2022-12-25T01:23:16.631Z,2.20
2022-12-25T01:23:30.215Z,2.20
2022-12-25T01:23:43.059Z,2.19
2022-12-25T01:23:55.658Z,2.18
2022-12-25T01:24:08.604Z,2.18
2022-12-25T01:24:21.187Z,2.18
2022-12-25T01:24:33.771Z,2.17
2022-12-25T01:24:46.472Z,2.19
2022-12-25T01:25:00.092Z,2.19
2022-12-25T01:25:13.235Z,2.19
2022-12-25T01:25:25.824Z,2.19
2022-12-25T01:25:38.556Z,2.17
2022-12-25T01:25:51.138Z,2.17
2022-12-25T01:26:04.374Z,2.17
2022-12-25T01:26:19.047Z,2.14
2022-12-25T01:26:31.626Z,2.16
2022-12-25T01:26:44.231Z,2.16
2022-12-25T01:26:56.823Z,2.18
2022-12-25T01:27:11.296Z,2.17
2022-12-25T01:27:24.034Z,2.16
2022-12-25T01:27:37.161Z,2.16
2022-12-25T01:27:50.758Z,2.18
2022-12-25T01:28:03.545Z,2.17
2022-12-25T01:28:16.408Z,2.17
2022-12-25T01:28:28.990Z,2.18
2022-12-25T01:28:41.714Z,2.17
2022-12-25T01:28:54.391Z,2.16
2022-12-25T01:29:06.983Z,2.16
2022-12-25T01:29:19.613Z,2.16
2022-12-25T01:29:33.243Z,2.16
2022-12-25T01:29:46.109Z,2.16
2022-12-25T01:29:58.723Z,2.16
2022-12-25T01:30:12.083Z,2.13
2022-12-25T01:30:24.703Z,2.15
2022-12-25T01:30:37.293Z,2.15
2022-12-25T01:30:50.111Z,2.15
2022-12-25T01:31:03.963Z,2.15
2022-12-25T01:31:19.171Z,2.17
2022-12-25T01:31:31.842Z,2.17
2022-12-25T01:31:44.658Z,2.17
2022-12-25T01:31:57.593Z,2.18
2022-12-25T01:32:10.335Z,2.16
2022-12-25T01:32:23.462Z,2.18
2022-12-25T01:32:36.040Z,2.17
2022-12-25T01:32:49.618Z,2.17
2022-12-25T01:33:02.257Z,2.17
2022-12-25T01:33:14.846Z,2.18
2022-12-25T01:33:27.489Z,2.19
2022-12-25T01:33:40.831Z,2.19
2022-12-25T01:33:53.451Z,2.19
2022-12-25T01:34:06.059Z,2.17
2022-12-25T01:34:18.643Z,2.21
2022-12-25T01:34:31.245Z,2.20
2022-12-25T01:34:48.136Z,2.20
2022-12-25T01:35:03.166Z,2.21
2022-12-25T01:35:15.960Z,2.22
2022-12-25T01:35:28.549Z,2.22
2022-12-25T01:35:42.110Z,2.23
2022-12-25T01:35:54.787Z,2.23
2022-12-25T01:36:15.598Z,2.23
2022-12-25T01:36:28.262Z,2.24
2022-12-25T01:36:41.188Z,2.25
2022-12-25T01:36:53.850Z,2.25
2022-12-25T01:37:07.179Z,2.25
2022-12-25T01:37:19.819Z,2.26
2022-12-25T01:37:32.391Z,2.26
2022-12-25T01:37:44.978Z,2.26
2022-12-25T01:37:58.576Z,2.26
2022-12-25T01:38:11.194Z,2.27
2022-12-25T01:38:23.870Z,2.28
2022-12-25T01:38:36.451Z,2.28
2022-12-25T01:38:50.376Z,2.27
2022-12-25T01:39:03.086Z,2.30
2022-12-25T01:39:15.723Z,2.28
2022-12-25T01:39:28.480Z,2.26
2022-12-25T01:39:42.085Z,2.30
2022-12-25T01:39:54.792Z,2.31
2022-12-25T01:40:08.481Z,2.31
2022-12-25T01:40:21.047Z,2.27
2022-12-25T01:40:34.925Z,2.30
2022-12-25T01:40:47.547Z,2.29
2022-12-25T01:41:00.142Z,2.31
2022-12-25T01:41:15.317Z,2.30
2022-12-25T01:41:27.892Z,2.32
2022-12-25T01:41:40.626Z,2.31
2022-12-25T01:41:53.322Z,2.31
2022-12-25T01:42:06.133Z,2.28
2022-12-25T01:42:22.217Z,2.30
2022-12-25T01:42:34.807Z,2.30
2022-12-25T01:42:48.404Z,2.30
2022-12-25T01:43:00.979Z,2.30
2022-12-25T01:43:23.283Z,2.31
2022-12-25T01:43:36.100Z,2.31
2022-12-25T01:44:02.386Z,2.31
2022-12-25T01:44:48.543Z,2.32
2022-12-25T01:45:33.185Z,2.32
2022-12-25T01:45:47.722Z,2.32
2022-12-25T01:46:00.712Z,2.32
2022-12-25T01:46:13.453Z,2.31
2022-12-25T01:46:26.138Z,2.31
2022-12-25T01:46:38.761Z,2.29
2022-12-25T01:46:51.349Z,2.31
2022-12-25T01:47:04.921Z,2.30
2022-12-25T01:47:19.764Z,2.29
2022-12-25T01:47:32.423Z,2.29
2022-12-25T01:47:45.084Z,2.29
2022-12-25T01:47:58.155Z,2.28
2022-12-25T01:48:16.238Z,2.26
2022-12-25T01:48:30.850Z,2.27
2022-12-25T01:48:43.494Z,2.26
2022-12-25T01:49:00.223Z,2.27
2022-12-25T01:49:16.278Z,2.27
2022-12-25T01:49:29.370Z,2.27
2022-12-25T01:49:46.498Z,2.27
2022-12-25T01:49:59.461Z,2.27
2022-12-25T01:50:12.075Z,2.28
2022-12-25T01:50:25.091Z,2.28
2022-12-25T01:50:41.779Z,2.28
2022-12-25T01:50:57.771Z,2.29
2022-12-25T01:51:24.571Z,2.28
2022-12-25T01:51:41.051Z,2.29
2022-12-25T01:51:57.663Z,2.29
2022-12-25T01:52:18.785Z,2.30
2022-12-25T01:52:36.035Z,2.30
2022-12-25T01:52:49.633Z,2.31
2022-12-25T01:53:03.205Z,2.30
2022-12-25T01:53:16.089Z,2.30
2022-12-25T01:53:30.186Z,2.31
2022-12-25T01:53:42.808Z,2.31
2022-12-25T01:53:58.254Z,2.32
2022-12-25T01:54:15.389Z,2.33
2022-12-25T01:54:32.344Z,2.33
2022-12-25T01:54:50.476Z,2.32
2022-12-25T01:55:06.194Z,2.32
2022-12-25T01:55:18.940Z,2.33
2022-12-25T01:55:34.291Z,2.33
2022-12-25T01:55:51.180Z,2.33
2022-12-25T01:56:06.974Z,2.32
2022-12-25T01:56:19.909Z,2.33
2022-12-25T01:56:33.980Z,2.34
2022-12-25T01:56:51.036Z,2.34
2022-12-25T01:57:09.450Z,2.32
2022-12-25T01:57:26.954Z,2.35
2022-12-25T01:57:40.847Z,2.35
2022-12-25T01:57:53.751Z,2.34
2022-12-25T01:58:07.746Z,2.35
2022-12-25T01:58:20.403Z,2.34
2022-12-25T01:58:33.520Z,2.33
2022-12-25T01:58:46.409Z,2.33
2022-12-25T01:59:00.430Z,2.33
2022-12-25T01:59:16.248Z,2.33
2022-12-25T01:59:29.757Z,2.33
2022-12-25T01:59:42.977Z,2.32
2022-12-25T01:59:58.760Z,2.33
2022-12-25T02:00:13.045Z,2.33
2022-12-25T02:00:25.726Z,2.33
2022-12-25T02:00:38.340Z,2.34
2022-12-25T02:00:52.131Z,2.34
2022-12-25T02:01:04.835Z,2.34
2022-12-25T02:01:18.471Z,2.34
2022-12-25T02:01:32.197Z,2.34
2022-12-25T02:01:45.972Z,2.35
2022-12-25T02:02:00.122Z,2.35
2022-12-25T02:02:13.257Z,2.35
2022-12-25T02:02:27.377Z,2.36
2022-12-25T02:02:42.068Z,2.35
2022-12-25T02:02:55.913Z,2.36
2022-12-25T02:03:09.852Z,2.36
2022-12-25T02:03:23.035Z,2.36
2022-12-25T02:03:35.696Z,2.36
2022-12-25T02:03:48.894Z,2.36
2022-12-25T02:04:07.149Z,2.37
2022-12-25T02:04:38.727Z,2.37
2022-12-25T02:04:56.548Z,2.39
2022-12-25T02:05:15.427Z,2.40
2022-12-25T02:05:30.177Z,2.38
2022-12-25T02:05:43.500Z,2.38
2022-12-25T02:05:57.006Z,2.38
2022-12-25T02:06:09.612Z,2.39
2022-12-25T02:06:23.424Z,2.38
2022-12-25T02:06:36.133Z,2.38
2022-12-25T02:06:51.761Z,2.39
2022-12-25T02:07:04.545Z,2.36
2022-12-25T02:07:20.659Z,2.35
2022-12-25T02:07:35.332Z,2.34
2022-12-25T02:07:49.088Z,2.35
2022-12-25T02:08:08.734Z,2.34
2022-12-25T02:08:22.704Z,2.34
2022-12-25T02:08:35.303Z,2.34
2022-12-25T02:08:48.732Z,2.33
2022-12-25T02:09:01.858Z,2.34
2022-12-25T02:09:15.139Z,2.32
2022-12-25T02:09:27.794Z,2.33
2022-12-25T02:09:41.780Z,2.34
2022-12-25T02:09:54.550Z,2.34
2022-12-25T02:10:08.517Z,2.34
2022-12-25T02:10:21.500Z,2.35
2022-12-25T02:10:34.177Z,2.34
2022-12-25T02:10:47.907Z,2.34
2022-12-25T02:11:00.587Z,2.34
2022-12-25T02:11:33.222Z,2.34
2022-12-25T02:11:58.451Z,2.35
2022-12-25T02:12:15.444Z,2.34
2022-12-25T02:12:32.828Z,2.34
2022-12-25T02:12:47.590Z,2.33
2022-12-25T02:13:02.466Z,2.32
2022-12-25T02:13:17.948Z,2.29
2022-12-25T02:13:30.670Z,2.31
2022-12-25T02:13:43.331Z,2.31
2022-12-25T02:13:55.904Z,2.29
2022-12-25T02:14:08.611Z,2.28
2022-12-25T02:14:21.295Z,2.28
2022-12-25T02:14:36.826Z,2.28
2022-12-25T02:14:53.282Z,2.26
2022-12-25T02:15:08.583Z,2.25
2022-12-25T02:15:23.029Z,2.23
2022-12-25T02:15:43.707Z,2.22
2022-12-25T02:16:07.166Z,2.22
2022-12-25T02:16:23.008Z,2.22
2022-12-25T02:16:57.337Z,2.23
2022-12-25T02:17:19.198Z,2.23
2022-12-25T02:17:37.504Z,2.23
2022-12-25T02:17:56.926Z,2.24
2022-12-25T02:18:17.473Z,2.23
2022-12-25T02:18:38.388Z,2.25
2022-12-25T02:18:57.057Z,2.25
2022-12-25T02:19:24.023Z,2.26
2022-12-25T02:19:57.644Z,2.26
2022-12-25T02:20:52.390Z,2.25
2022-12-25T02:21:36.828Z,2.26
2022-12-25T02:22:01.097Z,2.27
2022-12-25T02:22:28.296Z,2.26
2022-12-25T02:22:57.691Z,2.26
2022-12-25T02:23:33.778Z,2.27
2022-12-25T02:23:58.316Z,2.27
2022-12-25T02:24:27.231Z,2.28
2022-12-25T02:24:53.434Z,2.28
2022-12-25T02:25:23.156Z,2.28
2022-12-25T02:25:48.306Z,2.30
2022-12-25T02:26:16.379Z,2.31
2022-12-25T02:26:55.806Z,2.32
2022-12-25T02:27:18.796Z,2.34
2022-12-25T02:27:52.649Z,2.34
2022-12-25T02:28:17.024Z,2.33
2022-12-25T02:28:38.068Z,2.33
2022-12-25T02:28:59.956Z,2.33
2022-12-25T02:29:21.070Z,2.34
2022-12-25T02:29:40.936Z,2.32
2022-12-25T02:30:01.987Z,2.33
2022-12-25T02:30:14.925Z,2.33
2022-12-25T02:30:34.117Z,2.34
2022-12-25T02:30:53.793Z,2.33
2022-12-25T02:31:11.031Z,2.34
2022-12-25T02:31:32.540Z,2.34
2022-12-25T02:31:54.279Z,2.35
2022-12-25T02:32:16.661Z,2.35
2022-12-25T02:32:34.139Z,2.35
2022-12-25T02:33:14.989Z,2.35
2022-12-25T02:33:50.831Z,2.37
2022-12-25T02:34:09.698Z,2.35
2022-12-25T02:34:31.520Z,2.34
2022-12-25T02:34:50.189Z,2.34
2022-12-25T02:35:08.565Z,2.32
2022-12-25T02:35:25.671Z,2.32
2022-12-25T02:35:38.380Z,2.32
2022-12-25T02:35:55.663Z,2.31
2022-12-25T02:36:14.533Z,2.30
2022-12-25T02:36:32.505Z,2.30
2022-12-25T02:36:50.882Z,2.30
2022-12-25T02:37:08.984Z,2.31
2022-12-25T02:37:28.665Z,2.31
2022-12-25T02:37:47.088Z,2.32
2022-12-25T02:38:08.155Z,2.31
2022-12-25T02:38:27.875Z,2.32
2022-12-25T02:39:02.349Z,2.33
2022-12-25T02:39:42.729Z,2.32
2022-12-25T02:40:03.206Z,2.33
2022-12-25T02:40:19.769Z,2.35
2022-12-25T02:40:40.316Z,2.35
2022-12-25T02:40:57.765Z,2.35
2022-12-25T02:41:15.722Z,2.35
2022-12-25T02:41:30.810Z,2.36
2022-12-25T02:41:46.311Z,2.35
2022-12-25T02:42:04.934Z,2.36
2022-12-25T02:42:24.140Z,2.36
2022-12-25T02:43:01.047Z,2.36
2022-12-25T02:43:37.262Z,2.37
2022-12-25T02:44:08.250Z,2.38
2022-12-25T02:44:43.170Z,2.39
2022-12-25T02:45:14.331Z,2.38
2022-12-25T02:45:53.371Z,2.40
2022-12-25T02:46:27.706Z,2.40
2022-12-25T02:46:58.771Z,2.41
2022-12-25T02:47:29.862Z,2.41
2022-12-25T02:48:01.143Z,2.41
2022-12-25T02:48:33.354Z,2.42
2022-12-25T02:49:09.589Z,2.42
2022-12-25T02:49:43.122Z,2.41
2022-12-25T02:50:16.914Z,2.43
2022-12-25T02:50:53.590Z,2.43
2022-12-25T02:51:28.040Z,2.43
2022-12-25T02:52:03.273Z,2.40
2022-12-25T02:52:39.102Z,2.41
2022-12-25T02:53:12.640Z,2.41
2022-12-25T02:53:44.240Z,2.42
2022-12-25T02:54:17.612Z,2.42
2022-12-25T02:54:52.847Z,2.42
2022-12-25T02:55:28.486Z,2.42
2022-12-25T02:56:03.214Z,2.44
2022-12-25T02:56:34.943Z,2.44
2022-12-25T02:57:07.954Z,2.46
2022-12-25T02:57:44.787Z,2.46
2022-12-25T02:58:19.445Z,2.47
2022-12-25T02:58:56.187Z,2.47
2022-12-25T02:59:28.063Z,2.48
2022-12-25T03:00:03.334Z,2.46
2022-12-25T03:00:34.872Z,2.46
2022-12-25T03:01:10.457Z,2.45
2022-12-25T03:01:44.387Z,2.43
2022-12-25T03:02:16.009Z,2.42
2022-12-25T03:02:49.550Z,2.41
2022-12-25T03:03:24.517Z,2.39
2022-12-25T03:04:10.317Z,2.39
2022-12-25T03:04:44.386Z,2.39
2022-12-25T03:05:20.702Z,2.38
2022-12-25T03:05:55.334Z,2.41
2022-12-25T03:06:29.443Z,2.41
2022-12-25T03:06:56.582Z,2.40
2022-12-25T03:07:12.269Z,2.41
2022-12-25T03:07:26.966Z,2.42
2022-12-25T03:07:42.409Z,2.42
2022-12-25T03:07:57.607Z,2.42
2022-12-25T03:08:15.049Z,2.42
2022-12-25T03:08:34.067Z,2.42
2022-12-25T03:08:52.056Z,2.42
2022-12-25T03:09:22.113Z,2.42
2022-12-25T03:09:58.556Z,2.44
2022-12-25T03:10:33.217Z,2.45
2022-12-25T03:11:10.660Z,2.45
2022-12-25T03:11:32.292Z,2.47
2022-12-25T03:11:47.671Z,2.47
2022-12-25T03:12:07.861Z,2.48
2022-12-25T03:12:33.027Z,2.48
2022-12-25T03:12:52.171Z,2.49
2022-12-25T03:13:07.889Z,2.50
2022-12-25T03:13:24.451Z,2.48
2022-12-25T03:13:42.089Z,2.49
2022-12-25T03:14:18.756Z,2.50
2022-12-25T03:14:49.816Z,2.51
2022-12-25T03:15:21.330Z,2.51
2022-12-25T03:15:53.335Z,2.52
2022-12-25T03:16:25.536Z,2.52
2022-12-25T03:16:53.877Z,2.53
2022-12-25T03:17:07.119Z,2.53
2022-12-25T03:17:20.771Z,2.52
2022-12-25T03:17:34.337Z,2.51
2022-12-25T03:17:47.056Z,2.51
2022-12-25T03:18:03.595Z,2.51
2022-12-25T03:18:19.719Z,2.49
2022-12-25T03:18:34.753Z,2.50
2022-12-25T03:18:47.506Z,2.50
2022-12-25T03:19:00.266Z,2.50
2022-12-25T03:19:27.708Z,2.48
2022-12-25T03:19:58.672Z,2.49
2022-12-25T03:20:30.780Z,2.49
2022-12-25T03:21:02.031Z,2.47
2022-12-25T03:21:32.995Z,2.49
2022-12-25T03:22:04.515Z,2.47
2022-12-25T03:22:40.426Z,2.46
2022-12-25T03:23:12.933Z,2.46
2022-12-25T03:23:48.456Z,2.46
2022-12-25T03:24:17.203Z,2.46
2022-12-25T03:24:48.064Z,2.46
2022-12-25T03:25:19.365Z,2.46
2022-12-25T03:26:02.379Z,2.46
2022-12-25T03:26:33.471Z,2.47
2022-12-25T03:26:56.344Z,2.48
2022-12-25T03:27:08.955Z,2.47
2022-12-25T03:27:21.554Z,2.45
2022-12-25T03:27:35.808Z,2.46
2022-12-25T03:27:51.931Z,2.46
2022-12-25T03:28:05.493Z,2.44
2022-12-25T03:28:18.079Z,2.44
2022-12-25T03:28:31.689Z,2.44
2022-12-25T03:28:45.627Z,2.42
2022-12-25T03:28:58.296Z,2.41
2022-12-25T03:29:31.955Z,2.41
2022-12-25T03:30:02.918Z,2.41
2022-12-25T03:30:34.243Z,2.41
2022-12-25T03:31:14.360Z,2.40
2022-12-25T03:31:39.879Z,2.40
2022-12-25T03:32:01.899Z,2.41
2022-12-25T03:32:23.736Z,2.41
2022-12-25T03:32:42.486Z,2.40
2022-12-25T03:33:18.064Z,2.41
2022-12-25T03:34:06.531Z,2.41
2022-12-25T03:34:52.505Z,2.41
2022-12-25T03:35:25.867Z,2.43
2022-12-25T03:35:45.342Z,2.44
2022-12-25T03:36:04.075Z,2.45
2022-12-25T03:36:25.464Z,2.45
2022-12-25T03:36:51.248Z,2.44
2022-12-25T03:37:32.826Z,2.44
2022-12-25T03:38:14.303Z,2.46
2022-12-25T03:38:57.859Z,2.46
2022-12-25T03:39:39.631Z,2.47
2022-12-25T03:40:20.446Z,2.48
2022-12-25T03:41:00.881Z,2.49
2022-12-25T03:41:44.071Z,2.49
2022-12-25T03:42:19.642Z,2.49
2022-12-25T03:42:58.276Z,2.47
2022-12-25T03:43:57.565Z,2.46
2022-12-25T03:44:39.249Z,2.46
2022-12-25T03:45:18.892Z,2.45
2022-12-25T03:45:59.915Z,2.44
2022-12-25T03:46:31.246Z,2.45
2022-12-25T03:47:07.504Z,2.44
2022-12-25T03:47:46.607Z,2.45
2022-12-25T03:48:23.341Z,2.47
2022-12-25T03:49:01.260Z,2.47
2022-12-25T03:49:40.245Z,2.47
2022-12-25T03:50:22.615Z,2.44
2022-12-25T03:50:57.805Z,2.44
2022-12-25T03:51:31.713Z,2.45
2022-12-25T03:52:05.015Z,2.45
2022-12-25T03:52:38.193Z,2.46
2022-12-25T03:53:12.510Z,2.47
2022-12-25T03:53:48.641Z,2.46
2022-12-25T03:54:22.590Z,2.46
2022-12-25T03:54:57.442Z,2.47
2022-12-25T03:55:30.318Z,2.48
2022-12-25T03:56:02.351Z,2.49
2022-12-25T03:56:36.101Z,2.48
2022-12-25T03:57:08.428Z,2.50
2022-12-25T03:57:39.499Z,2.48